sensor_id;sensor_type;location;lat;lon;timestamp;temperature;humidity
74153;DHT22;62505;46.070;14.492;2023-02-15T00:01:55;20.90;53.40
74153;DHT22;62505;46.070;14.492;2023-02-15T00:04:24;20.90;53.40
74153;DHT22;62505;46.070;14.492;2023-02-15T00:07:12;20.90;53.40
74153;DHT22;62505;46.070;14.492;2023-02-15T00:09:39;20.90;53.40
74153;DHT22;62505;46.070;14.492;2023-02-15T00:12:06;20.90;53.40
74153;DHT22;62505;46.070;14.492;2023-02-15T00:14:33;20.90;54.00
74153;DHT22;62505;46.070;14.492;2023-02-15T00:17:02;20.90;53.40
74153;DHT22;62505;46.070;14.492;2023-02-15T00:19:29;20.90;53.40
74153;DHT22;62505;46.070;14.492;2023-02-15T00:21:56;20.90;53.40
74153;DHT22;62505;46.070;14.492;2023-02-15T00:24:23;20.90;53.40
74153;DHT22;62505;46.070;14.492;2023-02-15T00:26:50;20.90;53.40
74153;DHT22;62505;46.070;14.492;2023-02-15T00:29:18;20.90;53.40
74153;DHT22;62505;46.070;14.492;2023-02-15T00:31:46;20.90;53.40
74153;DHT22;62505;46.070;14.492;2023-02-15T00:34:16;20.90;53.40
74153;DHT22;62505;46.070;14.492;2023-02-15T00:36:44;20.90;53.40
74153;DHT22;62505;46.070;14.492;2023-02-15T00:39:12;20.90;53.40
74153;DHT22;62505;46.070;14.492;2023-02-15T00:41:39;20.90;53.40
74153;DHT22;62505;46.070;14.492;2023-02-15T00:44:07;20.90;53.40
74153;DHT22;62505;46.070;14.492;2023-02-15T00:46:34;20.90;53.40
74153;DHT22;62505;46.070;14.492;2023-02-15T00:49:02;20.90;53.40
74153;DHT22;62505;46.070;14.492;2023-02-15T00:51:31;20.90;53.40
74153;DHT22;62505;46.070;14.492;2023-02-15T00:53:58;20.90;53.40
74153;DHT22;62505;46.070;14.492;2023-02-15T00:56:25;20.90;53.40
74153;DHT22;62505;46.070;14.492;2023-02-15T00:58:54;20.90;53.40
74153;DHT22;62505;46.070;14.492;2023-02-15T01:01:21;20.80;53.40
74153;DHT22;62505;46.070;14.492;2023-02-15T01:03:49;20.90;53.40
74153;DHT22;62505;46.070;14.492;2023-02-15T01:06:16;20.90;53.40
74153;DHT22;62505;46.070;14.492;2023-02-15T01:08:45;20.80;53.40
74153;DHT22;62505;46.070;14.492;2023-02-15T01:11:15;20.80;53.40
74153;DHT22;62505;46.070;14.492;2023-02-15T01:13:48;20.80;53.40
74153;DHT22;62505;46.070;14.492;2023-02-15T01:16:15;20.80;53.40
74153;DHT22;62505;46.070;14.492;2023-02-15T01:18:43;20.80;53.40
74153;DHT22;62505;46.070;14.492;2023-02-15T01:21:11;20.80;53.40
74153;DHT22;62505;46.070;14.492;2023-02-15T01:23:39;20.80;53.40
74153;DHT22;62505;46.070;14.492;2023-02-15T01:26:08;20.90;53.40
74153;DHT22;62505;46.070;14.492;2023-02-15T01:28:36;20.80;53.40
74153;DHT22;62505;46.070;14.492;2023-02-15T01:31:07;20.80;53.40
74153;DHT22;62505;46.070;14.492;2023-02-15T01:33:35;20.90;53.40
74153;DHT22;62505;46.070;14.492;2023-02-15T01:36:03;20.80;53.40
74153;DHT22;62505;46.070;14.492;2023-02-15T01:38:30;20.80;53.40
74153;DHT22;62505;46.070;14.492;2023-02-15T01:40:57;20.80;53.40
74153;DHT22;62505;46.070;14.492;2023-02-15T01:43:48;20.80;53.40
74153;DHT22;62505;46.070;14.492;2023-02-15T01:46:17;20.80;53.40
74153;DHT22;62505;46.070;14.492;2023-02-15T01:48:47;20.80;53.40
74153;DHT22;62505;46.070;14.492;2023-02-15T01:51:16;20.80;53.40
74153;DHT22;62505;46.070;14.492;2023-02-15T01:53:49;20.80;53.40
74153;DHT22;62505;46.070;14.492;2023-02-15T01:56:20;20.80;53.40
74153;DHT22;62505;46.070;14.492;2023-02-15T01:58:51;20.80;53.40
74153;DHT22;62505;46.070;14.492;2023-02-15T02:01:21;20.80;53.40
74153;DHT22;62505;46.070;14.492;2023-02-15T02:03:56;20.80;53.40
74153;DHT22;62505;46.070;14.492;2023-02-15T02:06:26;20.80;53.40
74153;DHT22;62505;46.070;14.492;2023-02-15T02:08:53;20.80;53.40
74153;DHT22;62505;46.070;14.492;2023-02-15T02:11:21;20.80;53.40
74153;DHT22;62505;46.070;14.492;2023-02-15T02:13:50;20.80;53.40
74153;DHT22;62505;46.070;14.492;2023-02-15T02:16:21;20.80;53.30
74153;DHT22;62505;46.070;14.492;2023-02-15T02:19:00;20.80;53.40
74153;DHT22;62505;46.070;14.492;2023-02-15T02:24:58;20.80;53.40
74153;DHT22;62505;46.070;14.492;2023-02-15T02:27:37;20.80;53.40
74153;DHT22;62505;46.070;14.492;2023-02-15T02:30:48;20.80;53.40
74153;DHT22;62505;46.070;14.492;2023-02-15T02:33:31;20.80;53.40
74153;DHT22;62505;46.070;14.492;2023-02-15T02:36:06;20.80;54.00
74153;DHT22;62505;46.070;14.492;2023-02-15T02:38:45;20.80;53.40
74153;DHT22;62505;46.070;14.492;2023-02-15T02:41:20;20.80;53.40
74153;DHT22;62505;46.070;14.492;2023-02-15T02:43:54;20.80;53.40
74153;DHT22;62505;46.070;14.492;2023-02-15T02:46:29;20.80;53.40
74153;DHT22;62505;46.070;14.492;2023-02-15T02:48:58;20.80;53.40
74153;DHT22;62505;46.070;14.492;2023-02-15T02:51:26;20.80;53.40
74153;DHT22;62505;46.070;14.492;2023-02-15T02:53:54;20.80;53.40
74153;DHT22;62505;46.070;14.492;2023-02-15T02:56:27;20.80;53.30
74153;DHT22;62505;46.070;14.492;2023-02-15T02:58:59;20.80;53.40
74153;DHT22;62505;46.070;14.492;2023-02-15T03:01:31;20.80;53.40
74153;DHT22;62505;46.070;14.492;2023-02-15T03:04:04;20.80;53.40
74153;DHT22;62505;46.070;14.492;2023-02-15T03:06:38;20.80;53.30
74153;DHT22;62505;46.070;14.492;2023-02-15T03:09:10;20.80;53.30
74153;DHT22;62505;46.070;14.492;2023-02-15T03:11:41;20.80;53.30
74153;DHT22;62505;46.070;14.492;2023-02-15T03:14:09;20.80;53.30
74153;DHT22;62505;46.070;14.492;2023-02-15T03:16:37;20.80;53.40
74153;DHT22;62505;46.070;14.492;2023-02-15T03:19:09;20.80;53.40
74153;DHT22;62505;46.070;14.492;2023-02-15T03:21:40;20.80;53.30
74153;DHT22;62505;46.070;14.492;2023-02-15T03:24:11;20.80;53.40
74153;DHT22;62505;46.070;14.492;2023-02-15T03:26:41;20.80;53.40
74153;DHT22;62505;46.070;14.492;2023-02-15T03:29:10;20.80;53.30
74153;DHT22;62505;46.070;14.492;2023-02-15T03:31:40;20.80;53.30
74153;DHT22;62505;46.070;14.492;2023-02-15T03:34:12;20.80;53.40
74153;DHT22;62505;46.070;14.492;2023-02-15T03:36:44;20.80;53.40
74153;DHT22;62505;46.070;14.492;2023-02-15T03:39:18;20.80;53.30
74153;DHT22;62505;46.070;14.492;2023-02-15T03:41:54;20.80;53.40
74153;DHT22;62505;46.070;14.492;2023-02-15T03:44:26;20.80;53.30
74153;DHT22;62505;46.070;14.492;2023-02-15T03:46:58;20.80;53.40
74153;DHT22;62505;46.070;14.492;2023-02-15T03:49:31;20.80;53.40
74153;DHT22;62505;46.070;14.492;2023-02-15T03:52:05;20.80;53.40
74153;DHT22;62505;46.070;14.492;2023-02-15T03:54:34;20.80;53.30
74153;DHT22;62505;46.070;14.492;2023-02-15T03:57:15;20.80;53.30
74153;DHT22;62505;46.070;14.492;2023-02-15T04:00:02;20.80;53.40
74153;DHT22;62505;46.070;14.492;2023-02-15T04:03:09;20.80;53.40
74153;DHT22;62505;46.070;14.492;2023-02-15T04:05:39;20.80;53.40
74153;DHT22;62505;46.070;14.492;2023-02-15T04:08:06;20.80;53.30
74153;DHT22;62505;46.070;14.492;2023-02-15T04:10:33;20.80;53.40
74153;DHT22;62505;46.070;14.492;2023-02-15T04:13:17;20.80;53.40
74153;DHT22;62505;46.070;14.492;2023-02-15T04:15:44;20.80;53.40
74153;DHT22;62505;46.070;14.492;2023-02-15T04:18:29;20.80;53.40
74153;DHT22;62505;46.070;14.492;2023-02-15T04:21:16;20.80;53.40
74153;DHT22;62505;46.070;14.492;2023-02-15T04:24:00;20.80;53.40
74153;DHT22;62505;46.070;14.492;2023-02-15T04:26:45;20.80;53.40
74153;DHT22;62505;46.070;14.492;2023-02-15T04:29:13;20.80;53.40
74153;DHT22;62505;46.070;14.492;2023-02-15T04:31:40;20.80;53.40
74153;DHT22;62505;46.070;14.492;2023-02-15T04:34:08;20.80;53.40
74153;DHT22;62505;46.070;14.492;2023-02-15T04:36:36;20.80;53.40
74153;DHT22;62505;46.070;14.492;2023-02-15T04:39:04;20.80;53.40
74153;DHT22;62505;46.070;14.492;2023-02-15T04:41:31;20.80;53.40
74153;DHT22;62505;46.070;14.492;2023-02-15T04:43:58;20.80;53.40
74153;DHT22;62505;46.070;14.492;2023-02-15T04:46:26;20.80;53.40
74153;DHT22;62505;46.070;14.492;2023-02-15T04:48:53;20.80;53.40
74153;DHT22;62505;46.070;14.492;2023-02-15T04:51:20;20.80;53.40
74153;DHT22;62505;46.070;14.492;2023-02-15T04:53:48;20.80;53.40
74153;DHT22;62505;46.070;14.492;2023-02-15T04:56:18;20.80;53.40
74153;DHT22;62505;46.070;14.492;2023-02-15T04:58:45;20.80;53.40
74153;DHT22;62505;46.070;14.492;2023-02-15T05:01:12;20.80;53.40
74153;DHT22;62505;46.070;14.492;2023-02-15T05:03:39;20.80;53.40
74153;DHT22;62505;46.070;14.492;2023-02-15T05:06:06;20.80;53.40
74153;DHT22;62505;46.070;14.492;2023-02-15T05:08:33;20.80;53.40
74153;DHT22;62505;46.070;14.492;2023-02-15T05:11:01;20.80;53.40
74153;DHT22;62505;46.070;14.492;2023-02-15T05:13:28;20.80;53.40
74153;DHT22;62505;46.070;14.492;2023-02-15T05:15:55;20.80;53.40
74153;DHT22;62505;46.070;14.492;2023-02-15T05:18:23;20.80;53.40
74153;DHT22;62505;46.070;14.492;2023-02-15T05:20:50;20.80;53.40
74153;DHT22;62505;46.070;14.492;2023-02-15T05:23:17;20.80;53.40
74153;DHT22;62505;46.070;14.492;2023-02-15T05:25:47;20.80;53.40
74153;DHT22;62505;46.070;14.492;2023-02-15T05:28:34;20.80;53.40
74153;DHT22;62505;46.070;14.492;2023-02-15T05:31:04;20.80;53.50
74153;DHT22;62505;46.070;14.492;2023-02-15T05:33:33;20.80;53.50
74153;DHT22;62505;46.070;14.492;2023-02-15T05:36:00;20.80;53.40
74153;DHT22;62505;46.070;14.492;2023-02-15T05:38:28;20.80;53.50
74153;DHT22;62505;46.070;14.492;2023-02-15T05:40:55;20.80;53.50
74153;DHT22;62505;46.070;14.492;2023-02-15T05:43:22;20.80;53.50
74153;DHT22;62505;46.070;14.492;2023-02-15T05:45:52;20.70;47.60
74153;DHT22;62505;46.070;14.492;2023-02-15T05:48:21;20.30;39.20
74153;DHT22;62505;46.070;14.492;2023-02-15T05:50:57;20.10;44.20
74153;DHT22;62505;46.070;14.492;2023-02-15T05:53:24;20.20;44.00
74153;DHT22;62505;46.070;14.492;2023-02-15T05:55:51;20.20;43.40
74153;DHT22;62505;46.070;14.492;2023-02-15T05:58:19;20.30;43.50
74153;DHT22;62505;46.070;14.492;2023-02-15T06:00:46;20.30;44.40
74153;DHT22;62505;46.070;14.492;2023-02-15T06:03:15;20.30;44.70
74153;DHT22;62505;46.070;14.492;2023-02-15T06:05:42;20.40;47.60
74153;DHT22;62505;46.070;14.492;2023-02-15T06:08:09;20.50;50.70
74153;DHT22;62505;46.070;14.492;2023-02-15T06:10:36;20.70;51.50
74153;DHT22;62505;46.070;14.492;2023-02-15T06:13:03;20.80;51.70
74153;DHT22;62505;46.070;14.492;2023-02-15T06:15:30;20.90;51.40
74153;DHT22;62505;46.070;14.492;2023-02-15T06:17:57;20.80;51.40
74153;DHT22;62505;46.070;14.492;2023-02-15T06:20:25;20.80;50.90
74153;DHT22;62505;46.070;14.492;2023-02-15T06:22:52;20.80;50.90
74153;DHT22;62505;46.070;14.492;2023-02-15T06:25:19;20.70;50.40
74153;DHT22;62505;46.070;14.492;2023-02-15T06:27:46;20.70;50.70
74153;DHT22;62505;46.070;14.492;2023-02-15T06:30:15;20.70;50.50
74153;DHT22;62505;46.070;14.492;2023-02-15T06:32:42;20.70;50.50
74153;DHT22;62505;46.070;14.492;2023-02-15T06:35:09;20.70;50.60
74153;DHT22;62505;46.070;14.492;2023-02-15T06:37:37;20.70;50.60
74153;DHT22;62505;46.070;14.492;2023-02-15T06:40:06;20.70;50.80
74153;DHT22;62505;46.070;14.492;2023-02-15T06:42:33;20.70;51.10
74153;DHT22;62505;46.070;14.492;2023-02-15T06:45:00;20.70;51.50
74153;DHT22;62505;46.070;14.492;2023-02-15T06:47:27;20.80;51.90
74153;DHT22;62505;46.070;14.492;2023-02-15T06:49:54;20.80;52.00
74153;DHT22;62505;46.070;14.492;2023-02-15T06:52:21;20.90;51.90
74153;DHT22;62505;46.070;14.492;2023-02-15T06:54:50;20.90;52.00
74153;DHT22;62505;46.070;14.492;2023-02-15T06:57:17;20.90;52.10
74153;DHT22;62505;46.070;14.492;2023-02-15T06:59:44;20.90;52.20
74153;DHT22;62505;46.070;14.492;2023-02-15T07:02:11;20.90;52.40
74153;DHT22;62505;46.070;14.492;2023-02-15T07:04:38;20.90;52.30
74153;DHT22;62505;46.070;14.492;2023-02-15T07:07:10;20.80;52.20
74153;DHT22;62505;46.070;14.492;2023-02-15T07:09:37;20.90;52.20
74153;DHT22;62505;46.070;14.492;2023-02-15T07:12:06;20.90;52.40
74153;DHT22;62505;46.070;14.492;2023-02-15T07:14:51;20.90;52.50
74153;DHT22;62505;46.070;14.492;2023-02-15T07:17:18;20.90;52.60
74153;DHT22;62505;46.070;14.492;2023-02-15T07:19:45;20.90;52.60
74153;DHT22;62505;46.070;14.492;2023-02-15T07:22:12;20.90;52.60
74153;DHT22;62505;46.070;14.492;2023-02-15T07:24:39;20.90;52.70
74153;DHT22;62505;46.070;14.492;2023-02-15T07:27:08;20.90;52.70
74153;DHT22;62505;46.070;14.492;2023-02-15T07:29:35;20.90;52.60
74153;DHT22;62505;46.070;14.492;2023-02-15T07:32:02;20.90;52.80
74153;DHT22;62505;46.070;14.492;2023-02-15T07:34:29;20.90;52.70
74153;DHT22;62505;46.070;14.492;2023-02-15T07:36:56;20.90;52.70
74153;DHT22;62505;46.070;14.492;2023-02-15T07:39:23;20.90;52.90
74153;DHT22;62505;46.070;14.492;2023-02-15T07:41:50;20.90;53.10
74153;DHT22;62505;46.070;14.492;2023-02-15T07:44:18;20.90;52.70
74153;DHT22;62505;46.070;14.492;2023-02-15T07:46:45;20.90;52.30
74153;DHT22;62505;46.070;14.492;2023-02-15T07:49:12;20.90;52.40
74153;DHT22;62505;46.070;14.492;2023-02-15T07:51:40;20.90;52.40
74153;DHT22;62505;46.070;14.492;2023-02-15T07:54:07;20.90;52.50
74153;DHT22;62505;46.070;14.492;2023-02-15T07:56:34;20.90;52.60
74153;DHT22;62505;46.070;14.492;2023-02-15T07:59:01;20.90;52.50
74153;DHT22;62505;46.070;14.492;2023-02-15T08:01:33;21.00;52.30
74153;DHT22;62505;46.070;14.492;2023-02-15T08:04:01;21.00;52.60
74153;DHT22;62505;46.070;14.492;2023-02-15T08:06:29;21.00;52.60
74153;DHT22;62505;46.070;14.492;2023-02-15T08:08:57;21.00;53.00
74153;DHT22;62505;46.070;14.492;2023-02-15T08:11:25;21.00;52.90
74153;DHT22;62505;46.070;14.492;2023-02-15T08:13:55;21.00;52.80
74153;DHT22;62505;46.070;14.492;2023-02-15T08:16:27;21.00;52.60
74153;DHT22;62505;46.070;14.492;2023-02-15T08:18:56;21.00;52.80
74153;DHT22;62505;46.070;14.492;2023-02-15T08:21:25;21.00;52.90
74153;DHT22;62505;46.070;14.492;2023-02-15T08:23:53;21.00;53.10
74153;DHT22;62505;46.070;14.492;2023-02-15T08:26:20;21.00;53.10
74153;DHT22;62505;46.070;14.492;2023-02-15T08:28:47;21.00;53.30
74153;DHT22;62505;46.070;14.492;2023-02-15T08:31:15;21.00;53.30
74153;DHT22;62505;46.070;14.492;2023-02-15T08:33:43;21.00;53.50
74153;DHT22;62505;46.070;14.492;2023-02-15T08:36:13;21.00;53.40
74153;DHT22;62505;46.070;14.492;2023-02-15T08:38:41;21.00;52.90
74153;DHT22;62505;46.070;14.492;2023-02-15T08:41:13;21.00;52.60
74153;DHT22;62505;46.070;14.492;2023-02-15T08:43:40;21.00;52.20
74153;DHT22;62505;46.070;14.492;2023-02-15T08:46:08;21.10;52.10
74153;DHT22;62505;46.070;14.492;2023-02-15T08:48:37;21.10;52.10
74153;DHT22;62505;46.070;14.492;2023-02-15T08:51:08;21.10;52.20
74153;DHT22;62505;46.070;14.492;2023-02-15T08:53:38;21.10;52.50
74153;DHT22;62505;46.070;14.492;2023-02-15T08:56:05;21.10;52.40
74153;DHT22;62505;46.070;14.492;2023-02-15T08:58:32;21.10;52.50
74153;DHT22;62505;46.070;14.492;2023-02-15T09:00:59;21.10;52.50
74153;DHT22;62505;46.070;14.492;2023-02-15T09:03:28;21.10;52.80
74153;DHT22;62505;46.070;14.492;2023-02-15T09:05:58;21.10;52.90
74153;DHT22;62505;46.070;14.492;2023-02-15T09:08:26;21.10;53.00
74153;DHT22;62505;46.070;14.492;2023-02-15T09:11:03;21.10;52.90
74153;DHT22;62505;46.070;14.492;2023-02-15T09:13:31;21.10;52.60
74153;DHT22;62505;46.070;14.492;2023-02-15T09:16:00;21.10;52.80
74153;DHT22;62505;46.070;14.492;2023-02-15T09:18:29;21.10;52.80
74153;DHT22;62505;46.070;14.492;2023-02-15T09:20:56;21.10;52.70
74153;DHT22;62505;46.070;14.492;2023-02-15T09:23:23;21.10;52.70
74153;DHT22;62505;46.070;14.492;2023-02-15T09:25:50;21.10;52.80
74153;DHT22;62505;46.070;14.492;2023-02-15T09:28:18;21.00;52.70
74153;DHT22;62505;46.070;14.492;2023-02-15T09:30:45;21.00;52.80
74153;DHT22;62505;46.070;14.492;2023-02-15T09:33:12;21.00;52.80
74153;DHT22;62505;46.070;14.492;2023-02-15T09:35:39;21.00;52.90
74153;DHT22;62505;46.070;14.492;2023-02-15T09:38:06;21.00;52.90
74153;DHT22;62505;46.070;14.492;2023-02-15T09:40:44;21.00;52.90
74153;DHT22;62505;46.070;14.492;2023-02-15T09:43:25;21.00;52.90
74153;DHT22;62505;46.070;14.492;2023-02-15T09:46:10;21.00;52.90
74153;DHT22;62505;46.070;14.492;2023-02-15T09:48:42;21.00;52.90
74153;DHT22;62505;46.070;14.492;2023-02-15T09:51:27;21.00;52.90
74153;DHT22;62505;46.070;14.492;2023-02-15T09:54:11;21.00;52.80
74153;DHT22;62505;46.070;14.492;2023-02-15T09:56:47;21.00;52.90
74153;DHT22;62505;46.070;14.492;2023-02-15T09:59:22;21.00;52.90
74153;DHT22;62505;46.070;14.492;2023-02-15T10:02:01;20.90;52.80
74153;DHT22;62505;46.070;14.492;2023-02-15T10:04:45;21.00;52.90
74153;DHT22;62505;46.070;14.492;2023-02-15T10:07:26;21.00;52.80
74153;DHT22;62505;46.070;14.492;2023-02-15T10:10:06;21.00;52.80
74153;DHT22;62505;46.070;14.492;2023-02-15T10:12:56;20.90;52.80
74153;DHT22;62505;46.070;14.492;2023-02-15T10:15:35;21.00;52.80
74153;DHT22;62505;46.070;14.492;2023-02-15T10:18:26;20.90;52.70
74153;DHT22;62505;46.070;14.492;2023-02-15T10:21:00;20.90;52.70
74153;DHT22;62505;46.070;14.492;2023-02-15T10:23:46;21.00;52.80
74153;DHT22;62505;46.070;14.492;2023-02-15T10:26:18;21.00;52.80
74153;DHT22;62505;46.070;14.492;2023-02-15T10:28:48;20.90;52.60
74153;DHT22;62505;46.070;14.492;2023-02-15T10:31:23;21.00;52.70
74153;DHT22;62505;46.070;14.492;2023-02-15T10:36:53;20.90;52.60
74153;DHT22;62505;46.070;14.492;2023-02-15T10:39:33;20.90;52.70
74153;DHT22;62505;46.070;14.492;2023-02-15T10:42:07;20.90;52.70
74153;DHT22;62505;46.070;14.492;2023-02-15T10:44:47;20.90;52.70
74153;DHT22;62505;46.070;14.492;2023-02-15T10:47:43;20.90;52.60
74153;DHT22;62505;46.070;14.492;2023-02-15T10:50:22;20.90;52.60
74153;DHT22;62505;46.070;14.492;2023-02-15T10:53:02;21.00;52.70
74153;DHT22;62505;46.070;14.492;2023-02-15T10:55:45;20.90;52.60
74153;DHT22;62505;46.070;14.492;2023-02-15T10:58:17;20.90;52.60
74153;DHT22;62505;46.070;14.492;2023-02-15T11:00:50;20.90;52.60
74153;DHT22;62505;46.070;14.492;2023-02-15T11:03:36;20.90;52.60
74153;DHT22;62505;46.070;14.492;2023-02-15T11:06:08;20.90;52.60
74153;DHT22;62505;46.070;14.492;2023-02-15T11:08:40;20.90;53.20
74153;DHT22;62505;46.070;14.492;2023-02-15T11:11:12;20.90;52.60
74153;DHT22;62505;46.070;14.492;2023-02-15T11:13:46;20.90;52.60
74153;DHT22;62505;46.070;14.492;2023-02-15T11:16:16;20.90;52.60
74153;DHT22;62505;46.070;14.492;2023-02-15T11:18:50;20.90;52.60
74153;DHT22;62505;46.070;14.492;2023-02-15T11:21:21;20.90;52.60
74153;DHT22;62505;46.070;14.492;2023-02-15T11:23:49;20.90;52.60
74153;DHT22;62505;46.070;14.492;2023-02-15T11:26:21;20.90;52.60
74153;DHT22;62505;46.070;14.492;2023-02-15T11:28:53;20.90;52.60
74153;DHT22;62505;46.070;14.492;2023-02-15T11:31:24;20.90;52.60
74153;DHT22;62505;46.070;14.492;2023-02-15T11:33:55;20.90;52.50
74153;DHT22;62505;46.070;14.492;2023-02-15T11:36:27;20.90;52.50
74153;DHT22;62505;46.070;14.492;2023-02-15T11:38:59;20.90;52.50
74153;DHT22;62505;46.070;14.492;2023-02-15T11:41:33;20.90;52.50
74153;DHT22;62505;46.070;14.492;2023-02-15T11:44:10;20.90;52.50
74153;DHT22;62505;46.070;14.492;2023-02-15T11:46:38;20.90;52.50
74153;DHT22;62505;46.070;14.492;2023-02-15T11:49:20;20.90;52.50
74153;DHT22;62505;46.070;14.492;2023-02-15T11:51:48;20.90;52.50
74153;DHT22;62505;46.070;14.492;2023-02-15T11:54:17;20.90;52.50
74153;DHT22;62505;46.070;14.492;2023-02-15T11:56:44;20.90;52.50
74153;DHT22;62505;46.070;14.492;2023-02-15T11:59:15;20.90;52.50
74153;DHT22;62505;46.070;14.492;2023-02-15T12:01:44;20.90;52.50
74153;DHT22;62505;46.070;14.492;2023-02-15T12:04:18;20.90;52.50
74153;DHT22;62505;46.070;14.492;2023-02-15T12:06:52;20.90;52.50
74153;DHT22;62505;46.070;14.492;2023-02-15T12:09:30;20.90;52.50
74153;DHT22;62505;46.070;14.492;2023-02-15T12:12:20;20.90;52.50
74153;DHT22;62505;46.070;14.492;2023-02-15T12:14:49;20.90;52.50
74153;DHT22;62505;46.070;14.492;2023-02-15T12:17:17;20.90;52.50
74153;DHT22;62505;46.070;14.492;2023-02-15T12:19:45;20.90;53.10
74153;DHT22;62505;46.070;14.492;2023-02-15T12:22:21;20.90;53.10
74153;DHT22;62505;46.070;14.492;2023-02-15T12:24:50;20.90;52.50
74153;DHT22;62505;46.070;14.492;2023-02-15T12:27:20;20.90;52.50
74153;DHT22;62505;46.070;14.492;2023-02-15T12:29:50;20.90;52.50
74153;DHT22;62505;46.070;14.492;2023-02-15T12:32:21;20.90;52.50
74153;DHT22;62505;46.070;14.492;2023-02-15T12:34:51;20.90;52.50
74153;DHT22;62505;46.070;14.492;2023-02-15T12:37:22;20.90;52.50
74153;DHT22;62505;46.070;14.492;2023-02-15T12:39:55;20.90;52.50
74153;DHT22;62505;46.070;14.492;2023-02-15T12:42:22;20.90;52.50
74153;DHT22;62505;46.070;14.492;2023-02-15T12:44:58;20.90;52.50
74153;DHT22;62505;46.070;14.492;2023-02-15T12:47:26;20.90;52.50
74153;DHT22;62505;46.070;14.492;2023-02-15T12:50:14;20.90;52.50
74153;DHT22;62505;46.070;14.492;2023-02-15T12:52:46;20.90;52.50
74153;DHT22;62505;46.070;14.492;2023-02-15T12:55:25;20.90;52.50
74153;DHT22;62505;46.070;14.492;2023-02-15T12:58:12;20.90;52.50
74153;DHT22;62505;46.070;14.492;2023-02-15T13:00:42;20.90;52.40
74153;DHT22;62505;46.070;14.492;2023-02-15T13:03:16;20.90;52.40
74153;DHT22;62505;46.070;14.492;2023-02-15T13:05:47;20.90;52.40
74153;DHT22;62505;46.070;14.492;2023-02-15T13:08:18;20.90;52.40
74153;DHT22;62505;46.070;14.492;2023-02-15T13:10:54;20.90;52.40
74153;DHT22;62505;46.070;14.492;2023-02-15T13:13:24;20.90;52.40
74153;DHT22;62505;46.070;14.492;2023-02-15T13:15:53;20.90;52.40
74153;DHT22;62505;46.070;14.492;2023-02-15T13:18:30;20.90;52.50
74153;DHT22;62505;46.070;14.492;2023-02-15T13:21:04;20.90;52.40
74153;DHT22;62505;46.070;14.492;2023-02-15T13:23:33;20.90;52.40
74153;DHT22;62505;46.070;14.492;2023-02-15T13:26:04;20.90;52.40
74153;DHT22;62505;46.070;14.492;2023-02-15T13:28:36;20.90;52.40
74153;DHT22;62505;46.070;14.492;2023-02-15T13:31:12;20.90;52.30
74153;DHT22;62505;46.070;14.492;2023-02-15T13:33:43;20.90;52.40
74153;DHT22;62505;46.070;14.492;2023-02-15T13:36:18;20.90;52.30
74153;DHT22;62505;46.070;14.492;2023-02-15T13:38:55;20.90;52.40
74153;DHT22;62505;46.070;14.492;2023-02-15T13:41:30;21.00;52.40
74153;DHT22;62505;46.070;14.492;2023-02-15T13:44:05;20.90;52.40
74153;DHT22;62505;46.070;14.492;2023-02-15T13:46:46;20.90;52.30
74153;DHT22;62505;46.070;14.492;2023-02-15T13:49:28;20.90;52.30
74153;DHT22;62505;46.070;14.492;2023-02-15T13:52:08;20.90;53.00
74153;DHT22;62505;46.070;14.492;2023-02-15T13:54:57;20.90;52.40
74153;DHT22;62505;46.070;14.492;2023-02-15T13:57:45;20.90;52.40
74153;DHT22;62505;46.070;14.492;2023-02-15T14:00:22;20.90;52.30
74153;DHT22;62505;46.070;14.492;2023-02-15T14:03:18;20.90;52.40
74153;DHT22;62505;46.070;14.492;2023-02-15T14:06:04;20.90;52.40
74153;DHT22;62505;46.070;14.492;2023-02-15T14:08:49;20.90;52.40
74153;DHT22;62505;46.070;14.492;2023-02-15T14:11:29;20.90;52.40
74153;DHT22;62505;46.070;14.492;2023-02-15T14:16:54;20.90;52.30
74153;DHT22;62505;46.070;14.492;2023-02-15T14:19:29;20.90;52.30
74153;DHT22;62505;46.070;14.492;2023-02-15T14:22:02;20.90;52.40
74153;DHT22;62505;46.070;14.492;2023-02-15T14:24:38;20.90;52.40
74153;DHT22;62505;46.070;14.492;2023-02-15T14:27:17;20.90;52.30
74153;DHT22;62505;46.070;14.492;2023-02-15T14:29:50;20.90;52.40
74153;DHT22;62505;46.070;14.492;2023-02-15T14:32:24;20.90;52.30
74153;DHT22;62505;46.070;14.492;2023-02-15T14:34:55;20.90;52.40
74153;DHT22;62505;46.070;14.492;2023-02-15T14:37:30;20.90;52.40
74153;DHT22;62505;46.070;14.492;2023-02-15T14:40:05;20.90;52.40
74153;DHT22;62505;46.070;14.492;2023-02-15T14:42:58;20.90;52.30
74153;DHT22;62505;46.070;14.492;2023-02-15T14:45:29;20.90;52.40
74153;DHT22;62505;46.070;14.492;2023-02-15T14:48:04;20.90;52.30
74153;DHT22;62505;46.070;14.492;2023-02-15T14:50:42;20.90;52.40
74153;DHT22;62505;46.070;14.492;2023-02-15T14:53:22;20.90;52.30
74153;DHT22;62505;46.070;14.492;2023-02-15T15:01:39;20.90;52.30
74153;DHT22;62505;46.070;14.492;2023-02-15T15:04:08;20.90;52.40
74153;DHT22;62505;46.070;14.492;2023-02-15T15:06:37;20.90;52.40
74153;DHT22;62505;46.070;14.492;2023-02-15T15:09:12;20.90;52.30
74153;DHT22;62505;46.070;14.492;2023-02-15T15:11:45;20.90;52.40
74153;DHT22;62505;46.070;14.492;2023-02-15T15:14:40;20.90;52.30
74153;DHT22;62505;46.070;14.492;2023-02-15T15:17:11;20.90;52.40
74153;DHT22;62505;46.070;14.492;2023-02-15T15:20:04;20.90;52.40
74153;DHT22;62505;46.070;14.492;2023-02-15T15:22:35;20.90;52.40
74153;DHT22;62505;46.070;14.492;2023-02-15T15:25:03;20.90;52.30
74153;DHT22;62505;46.070;14.492;2023-02-15T15:27:52;20.90;52.30
74153;DHT22;62505;46.070;14.492;2023-02-15T15:33:50;20.90;52.30
74153;DHT22;62505;46.070;14.492;2023-02-15T15:42:50;20.90;52.40
74153;DHT22;62505;46.070;14.492;2023-02-15T15:48:28;20.90;52.40
74153;DHT22;62505;46.070;14.492;2023-02-15T15:51:00;20.90;52.40
74153;DHT22;62505;46.070;14.492;2023-02-15T15:53:32;20.90;52.40
74153;DHT22;62505;46.070;14.492;2023-02-15T15:56:05;20.90;52.40
74153;DHT22;62505;46.070;14.492;2023-02-15T15:58:35;20.90;52.60
74153;DHT22;62505;46.070;14.492;2023-02-15T16:01:08;20.90;52.80
74153;DHT22;62505;46.070;14.492;2023-02-15T16:03:37;20.90;52.80
74153;DHT22;62505;46.070;14.492;2023-02-15T16:06:13;21.00;53.20
74153;DHT22;62505;46.070;14.492;2023-02-15T16:08:42;21.00;53.30
74153;DHT22;62505;46.070;14.492;2023-02-15T16:11:11;21.00;53.50
74153;DHT22;62505;46.070;14.492;2023-02-15T16:13:40;21.00;53.60